Time;durP1;ratioP1;P1;durP2;ratioP2;P2;SDS_P1;SDS_P2;PMS_P1;PMS_P2;Temp;Humidity;BMP_temperature;BMP_pressure;BME280_temperature;BME280_humidity;BME280_pressure;Samples;Min_cycle;Max_cycle;Signal;HPM_P1;HPM_P2
2021/10/17 00:00:57;;;;;;;16.80;12.00;;;11.80;99.90;;;;;;2103623;28;20028;-69
2021/10/17 00:01:58;;;;;;;17.58;11.70;;;11.80;99.90;;;;;;2103730;28;20405;-69
2021/10/17 00:02:59;;;;;;;17.77;11.23;;;11.80;99.90;;;;;;2106247;28;20480;-69
2021/10/17 00:03:59;;;;;;;15.18;12.25;;;11.80;99.90;;;;;;2111815;28;20020;-69
2021/10/17 00:05:00;;;;;;;14.98;11.32;;;11.80;99.90;;;;;;2111770;28;20004;-69
2021/10/17 00:06:01;;;;;;;16.88;11.70;;;11.90;99.90;;;;;;2112410;28;20020;-69
2021/10/17 00:07:02;;;;;;;18.73;12.20;;;11.80;99.90;;;;;;2111859;28;20020;-69
2021/10/17 00:08:04;;;;;;;20.17;12.05;;;11.90;99.90;;;;;;2110198;28;20026;-69
2021/10/17 00:09:05;;;;;;;16.02;12.07;;;11.80;99.90;;;;;;2103144;28;20013;-69
2021/10/17 00:10:08;;;;;;;17.20;11.93;;;11.80;99.90;;;;;;2104990;28;20031;-69
2021/10/17 00:11:09;;;;;;;15.23;11.25;;;11.70;99.90;;;;;;2103310;28;20020;-69
2021/10/17 00:12:11;;;;;;;19.73;11.25;;;11.70;99.90;;;;;;2103533;28;20024;-69
2021/10/17 00:13:12;;;;;;;14.02;10.55;;;11.70;99.90;;;;;;2106315;28;20081;-69
2021/10/17 00:14:13;;;;;;;16.42;10.77;;;11.70;99.90;;;;;;2105433;28;20441;-69
2021/10/17 00:15:17;;;;;;;19.70;12.50;;;11.80;99.90;;;;;;2100753;28;20520;-69
2021/10/17 00:16:19;;;;;;;18.60;11.85;;;11.80;99.90;;;;;;2101237;28;20385;-69
2021/10/17 00:17:19;;;;;;;14.13;10.73;;;11.90;99.90;;;;;;2102769;28;20012;-69
2021/10/17 00:18:20;;;;;;;16.52;11.07;;;11.90;99.90;;;;;;2106739;28;20051;-69
2021/10/17 00:19:21;;;;;;;23.85;11.35;;;11.90;99.90;;;;;;2098729;28;20028;-69
2021/10/17 00:20:23;;;;;;;14.57;11.05;;;11.90;99.90;;;;;;2099268;28;20035;-69
2021/10/17 00:21:24;;;;;;;14.35;11.15;;;11.90;99.90;;;;;;2104470;28;20066;-69
2021/10/17 00:22:25;;;;;;;16.52;11.18;;;11.90;99.90;;;;;;2107201;28;20504;-69
2021/10/17 00:23:25;;;;;;;19.15;11.25;;;11.90;99.90;;;;;;2105818;28;20023;-69
2021/10/17 00:24:26;;;;;;;15.93;10.90;;;11.90;99.90;;;;;;2106011;28;20020;-69
2021/10/17 00:25:27;;;;;;;14.90;11.23;;;11.90;99.90;;;;;;2106399;28;20012;-69
2021/10/17 00:26:28;;;;;;;14.88;10.40;;;11.90;99.90;;;;;;2102145;28;20031;-69
2021/10/17 00:27:28;;;;;;;15.38;11.15;;;11.90;99.90;;;;;;2105280;28;20055;-70
2021/10/17 00:28:29;;;;;;;14.13;10.57;;;11.90;99.90;;;;;;2105679;28;20016;-69
2021/10/17 00:29:30;;;;;;;14.55;10.38;;;12.00;99.90;;;;;;2103186;28;20014;-68
2021/10/17 00:30:30;;;;;;;14.55;10.30;;;12.00;99.90;;;;;;2098148;28;20032;-68
2021/10/17 00:31:31;;;;;;;13.27;10.27;;;12.00;99.90;;;;;;2097928;28;20524;-69
2021/10/17 00:32:32;;;;;;;16.13;11.20;;;12.00;99.90;;;;;;2096279;28;20087;-68
2021/10/17 00:33:33;;;;;;;15.05;9.80;;;12.00;99.90;;;;;;2105490;28;20364;-68
2021/10/17 00:34:33;;;;;;;17.58;10.48;;;12.00;99.90;;;;;;2105187;28;20550;-70
2021/10/17 00:35:35;;;;;;;14.45;9.75;;;12.00;99.90;;;;;;2105829;28;20021;-69
2021/10/17 00:36:36;;;;;;;;;;;12.00;99.90;;;;;;2106434;28;20042;-69
2021/10/17 00:37:38;;;;;;;18.98;10.30;;;12.00;99.90;;;;;;2106377;28;20452;-69
2021/10/17 00:38:38;;;;;;;18.13;10.93;;;12.00;99.90;;;;;;2106198;28;20416;-69
2021/10/17 00:39:39;;;;;;;15.07;10.43;;;11.90;99.90;;;;;;2102592;28;20051;-68
2021/10/17 00:40:40;;;;;;;14.88;10.07;;;11.90;99.90;;;;;;2097848;28;20033;-69
2021/10/17 00:41:41;;;;;;;18.42;10.35;;;11.90;99.90;;;;;;2102987;28;20456;-69
2021/10/17 00:42:43;;;;;;;11.90;9.50;;;11.90;99.90;;;;;;2105512;28;20020;-69
2021/10/17 00:43:46;;;;;;;13.32;9.93;;;11.90;99.90;;;;;;2112476;28;20019;-69
2021/10/17 00:44:55;;;;;;;15.70;9.45;;;11.90;99.90;;;;;;2103680;28;20052;-68
2021/10/17 00:45:55;;;;;;;12.65;9.95;;;11.90;99.90;;;;;;2104019;28;20020;-69
2021/10/17 00:46:56;;;;;;;15.60;10.48;;;11.90;99.90;;;;;;2105298;28;20434;-69
2021/10/17 00:47:59;;;;;;;16.23;10.40;;;11.90;99.90;;;;;;2105102;28;20020;-68
2021/10/17 00:49:00;;;;;;;12.57;9.57;;;11.90;99.90;;;;;;2102218;28;20031;-69
2021/10/17 00:50:02;;;;;;;15.43;10.57;;;11.90;99.90;;;;;;2105889;28;20020;-69
2021/10/17 00:51:03;;;;;;;14.52;10.40;;;11.90;99.90;;;;;;2105299;28;20132;-69
2021/10/17 00:52:04;;;;;;;13.45;9.82;;;11.90;99.90;;;;;;2105364;28;20521;-68
2021/10/17 00:53:04;;;;;;;16.02;10.32;;;11.80;99.90;;;;;;2104940;28;20052;-69
2021/10/17 00:54:05;;;;;;;15.20;10.07;;;11.80;99.90;;;;;;2105993;28;20027;-69
2021/10/17 00:55:07;;;;;;;16.23;10.35;;;11.80;99.90;;;;;;2104323;28;20640;-69
2021/10/17 00:56:08;;;;;;;17.25;9.85;;;11.80;99.90;;;;;;2106225;28;20016;-69
2021/10/17 00:57:10;;;;;;;13.52;9.40;;;11.80;99.90;;;;;;2106021;28;20031;-69
2021/10/17 00:58:14;;;;;;;14.23;10.10;;;11.80;99.90;;;;;;2102540;28;20050;-71
2021/10/17 00:59:15;;;;;;;16.63;9.75;;;11.80;99.90;;;;;;2102267;28;20027;-69
2021/10/17 01:00:16;;;;;;;14.35;10.07;;;11.80;99.90;;;;;;2105746;28;20024;-68
2021/10/17 01:01:17;;;;;;;13.65;10.35;;;11.90;99.90;;;;;;2105207;28;20424;-68
2021/10/17 01:02:18;;;;;;;16.10;10.13;;;11.90;99.90;;;;;;2105090;28;20032;-68
2021/10/17 01:03:18;;;;;;;15.82;9.52;;;11.90;99.90;;;;;;2104761;28;20012;-69
2021/10/17 01:04:19;;;;;;;18.10;9.73;;;11.90;99.90;;;;;;2106348;28;20095;-68
2021/10/17 01:05:20;;;;;;;15.52;9.70;;;11.90;99.90;;;;;;2102595;28;20008;-68
2021/10/17 01:06:21;;;;;;;14.10;9.73;;;11.90;99.90;;;;;;2100381;28;20099;-68
2021/10/17 01:07:22;;;;;;;14.00;9.47;;;11.80;99.90;;;;;;2103942;28;20012;-69
2021/10/17 01:08:24;;;;;;;13.95;9.13;;;11.80;99.90;;;;;;2099073;28;20626;-68
2021/10/17 01:09:24;;;;;;;15.90;9.30;;;11.80;99.90;;;;;;2106258;28;20426;-69
2021/10/17 01:10:27;;;;;;;12.75;9.30;;;11.80;99.90;;;;;;2105927;28;20016;-68
2021/10/17 01:11:45;;;;;;;13.65;9.48;;;11.80;99.90;;;;;;2102052;28;20043;-69
2021/10/17 01:12:45;;;;;;;15.25;9.65;;;11.80;99.90;;;;;;2105666;28;20589;-68
2021/10/17 01:13:46;;;;;;;14.23;9.13;;;11.80;99.90;;;;;;2103439;28;20107;-68
2021/10/17 01:14:47;;;;;;;14.15;9.43;;;11.80;99.90;;;;;;2113984;28;20027;-69
2021/10/17 01:15:52;;;;;;;16.25;9.45;;;11.70;99.90;;;;;;2115546;27;20031;-69
2021/10/17 01:16:53;;;;;;;15.23;8.68;;;11.70;99.90;;;;;;2098948;28;20383;-69
2021/10/17 01:17:54;;;;;;;13.10;8.73;;;11.70;99.90;;;;;;2102564;28;20031;-69
2021/10/17 01:18:55;;;;;;;13.57;9.20;;;11.70;99.90;;;;;;2099343;28;20019;-68
2021/10/17 01:19:55;;;;;;;14.43;8.98;;;11.80;99.90;;;;;;2106047;28;20101;-69
2021/10/17 01:20:56;;;;;;;14.07;9.02;;;11.80;99.90;;;;;;2106031;28;20025;-69
2021/10/17 01:21:57;;;;;;;13.13;8.60;;;11.80;99.90;;;;;;2110383;28;20020;-68
2021/10/17 01:22:58;;;;;;;14.32;8.82;;;11.80;99.90;;;;;;2105662;28;20036;-69
2021/10/17 01:23:59;;;;;;;12.50;8.93;;;11.80;99.90;;;;;;2100603;28;20724;-69
2021/10/17 01:25:00;;;;;;;13.80;8.40;;;11.80;99.90;;;;;;2096866;28;20078;-69
2021/10/17 01:26:00;;;;;;;12.45;8.63;;;11.80;99.90;;;;;;2100200;28;20121;-68
2021/10/17 01:27:01;;;;;;;13.73;8.32;;;11.80;99.90;;;;;;2097411;28;20164;-68
2021/10/17 01:28:02;;;;;;;16.40;8.88;;;11.80;99.90;;;;;;2102137;28;20102;-68
2021/10/17 01:29:04;;;;;;;12.95;9.02;;;11.80;99.90;;;;;;2106117;28;20043;-68
2021/10/17 01:30:07;;;;;;;10.60;7.97;;;11.80;99.90;;;;;;2105529;28;20020;-69
2021/10/17 01:31:08;;;;;;;11.60;8.10;;;11.80;99.90;;;;;;2103619;28;20020;-68
2021/10/17 01:32:09;;;;;;;12.88;8.90;;;11.80;99.90;;;;;;2097333;28;20086;-68
2021/10/17 01:33:10;;;;;;;12.70;8.30;;;11.80;99.90;;;;;;2110259;28;20031;-68
2021/10/17 01:34:10;;;;;;;13.75;8.65;;;11.80;99.90;;;;;;2105527;28;20178;-68
2021/10/17 01:35:12;;;;;;;16.90;8.43;;;11.80;99.90;;;;;;2097550;28;20028;-69
2021/10/17 01:36:12;;;;;;;14.40;8.45;;;11.80;99.90;;;;;;2099616;28;20526;-68
2021/10/17 01:37:13;;;;;;;15.68;8.95;;;11.80;99.90;;;;;;2105930;28;20027;-68
2021/10/17 01:38:13;;;;;;;12.77;8.07;;;11.90;99.90;;;;;;2100746;28;20111;-68
2021/10/17 01:39:17;;;;;;;12.02;8.80;;;11.90;99.90;;;;;;2097222;28;20134;-68
2021/10/17 01:40:19;;;;;;;12.38;8.18;;;11.80;99.90;;;;;;2097331;28;20056;-69
2021/10/17 01:41:19;;;;;;;10.27;7.63;;;11.80;99.90;;;;;;2099582;28;20520;-68
2021/10/17 01:42:20;;;;;;;10.75;7.45;;;11.80;99.90;;;;;;2105917;28;20028;-68
2021/10/17 01:43:21;;;;;;;10.57;7.88;;;11.80;99.90;;;;;;2101581;28;20698;-68
2021/10/17 01:44:30;;;;;;;13.63;7.63;;;11.80;99.90;;;;;;2105779;28;20045;-69
2021/10/17 01:45:30;;;;;;;9.77;8.00;;;11.80;99.90;;;;;;2105695;28;20447;-69
2021/10/17 01:46:33;;;;;;;12.15;7.82;;;11.70;99.90;;;;;;2102544;28;20025;-69
2021/10/17 01:47:34;;;;;;;11.65;8.18;;;11.70;99.90;;;;;;2097537;28;20023;-69
2021/10/17 01:48:34;;;;;;;11.95;7.63;;;11.70;99.90;;;;;;2102717;28;20016;-68
2021/10/17 01:49:36;;;;;;;12.07;8.50;;;11.70;99.90;;;;;;2102742;28;20075;-68
2021/10/17 01:50:37;;;;;;;10.95;7.65;;;11.70;99.90;;;;;;2104933;28;20080;-68
2021/10/17 01:51:38;;;;;;;15.45;7.80;;;11.70;99.90;;;;;;2104337;28;20099;-68
2021/10/17 01:52:39;;;;;;;11.95;6.97;;;11.80;99.90;;;;;;2105993;28;20422;-69
2021/10/17 01:53:40;;;;;;;11.88;7.35;;;11.70;99.90;;;;;;2105574;28;20404;-68
2021/10/17 01:54:40;;;;;;;13.15;7.35;;;11.70;99.90;;;;;;2105416;28;20107;-68
2021/10/17 01:55:41;;;;;;;12.38;7.80;;;11.70;99.90;;;;;;2105873;28;20031;-68
2021/10/17 01:56:42;;;;;;;10.98;7.85;;;11.70;99.90;;;;;;2101648;28;20035;-68
2021/10/17 01:57:42;;;;;;;11.38;7.53;;;11.80;99.90;;;;;;2105584;28;20028;-69
2021/10/17 01:58:43;;;;;;;10.90;7.63;;;11.70;99.90;;;;;;2099656;28;20035;-69
2021/10/17 01:59:44;;;;;;;9.70;7.15;;;11.80;99.90;;;;;;2097319;28;20593;-68
2021/10/17 02:00:44;;;;;;;9.65;7.38;;;11.70;99.90;;;;;;2097638;28;20036;-68
2021/10/17 02:01:45;;;;;;;12.45;7.57;;;11.80;99.90;;;;;;2094885;28;20401;-68
2021/10/17 02:02:46;;;;;;;11.68;7.90;;;11.70;99.90;;;;;;2098664;28;20047;-68
2021/10/17 02:03:46;;;;;;;10.77;7.40;;;11.70;99.90;;;;;;2101255;28;20016;-68
2021/10/17 02:04:48;;;;;;;12.25;8.25;;;11.70;99.90;;;;;;2097363;28;20025;-69
2021/10/17 02:05:49;;;;;;;9.77;7.13;;;11.70;99.90;;;;;;2097146;28;20009;-68
2021/10/17 02:06:49;;;;;;;13.57;7.53;;;11.70;99.90;;;;;;2099776;28;20028;-69
2021/10/17 02:07:50;;;;;;;13.00;7.45;;;11.70;99.90;;;;;;2105619;28;20024;-68
2021/10/17 02:08:51;;;;;;;12.73;7.78;;;11.70;99.90;;;;;;2105174;28;20027;-68
2021/10/17 02:09:51;;;;;;;10.60;7.40;;;11.70;99.90;;;;;;2105821;28;20048;-68
2021/10/17 02:10:52;;;;;;;10.52;7.30;;;11.70;99.90;;;;;;2101886;28;20036;-68
2021/10/17 02:11:53;;;;;;;16.85;7.20;;;11.70;99.90;;;;;;2097913;28;20031;-68
2021/10/17 02:12:53;;;;;;;10.85;6.97;;;11.70;99.90;;;;;;2104855;28;20666;-69
2021/10/17 02:13:54;;;;;;;11.65;7.68;;;11.70;99.90;;;;;;2105360;28;20487;-68
2021/10/17 02:14:55;;;;;;;10.93;7.40;;;11.70;99.90;;;;;;2105887;28;20361;-69
2021/10/17 02:15:55;;;;;;;10.60;7.32;;;11.70;99.90;;;;;;2102185;28;20042;-69
2021/10/17 02:16:56;;;;;;;11.90;7.28;;;11.70;99.90;;;;;;2104522;28;20502;-68
2021/10/17 02:17:57;;;;;;;12.93;7.03;;;11.70;99.90;;;;;;2105144;28;20103;-69
2021/10/17 02:18:57;;;;;;;8.18;6.65;;;11.70;99.90;;;;;;2096633;28;20074;-69
2021/10/17 02:19:59;;;;;;;9.70;6.72;;;11.70;99.90;;;;;;2097355;28;20581;-69
2021/10/17 02:21:00;;;;;;;13.23;6.97;;;11.70;99.90;;;;;;2105670;28;20387;-69
2021/10/17 02:22:01;;;;;;;9.15;7.13;;;11.70;99.90;;;;;;2100267;28;20028;-68
2021/10/17 02:23:04;;;;;;;12.32;7.20;;;11.70;99.90;;;;;;2105807;28;20040;-69
2021/10/17 02:24:06;;;;;;;11.23;6.70;;;11.70;99.90;;;;;;2105514;28;20016;-68
2021/10/17 02:25:08;;;;;;;10.32;6.43;;;11.70;99.90;;;;;;2098167;28;20016;-68
2021/10/17 02:26:09;;;;;;;;;;;11.70;99.90;;;;;;2102174;28;20107;-68
2021/10/17 02:27:10;;;;;;;10.60;6.95;;;11.70;99.90;;;;;;2101705;28;19904;-68
2021/10/17 02:28:10;;;;;;;10.95;7.32;;;11.70;99.90;;;;;;2098831;28;20021;-69
2021/10/17 02:29:11;;;;;;;10.45;6.43;;;11.70;99.90;;;;;;2097595;28;20104;-69
2021/10/17 02:30:12;;;;;;;7.78;6.13;;;11.70;99.90;;;;;;2105673;28;20751;-68
2021/10/17 02:31:13;;;;;;;9.43;6.80;;;11.60;99.90;;;;;;2101997;28;20101;-68
2021/10/17 02:32:14;;;;;;;11.75;6.28;;;11.60;99.90;;;;;;2103167;28;21069;-69
2021/10/17 02:33:15;;;;;;;10.77;7.28;;;11.70;99.90;;;;;;2110436;28;20023;-68
2021/10/17 02:34:15;;;;;;;9.80;6.50;;;11.70;99.90;;;;;;2096938;28;20025;-68
2021/10/17 02:35:16;;;;;;;11.30;6.57;;;11.70;99.90;;;;;;2096513;28;20048;-68
2021/10/17 02:36:17;;;;;;;12.70;6.82;;;11.70;99.90;;;;;;2096015;28;20017;-68
2021/10/17 02:37:18;;;;;;;10.73;6.90;;;11.60;99.90;;;;;;2097178;28;20082;-68
2021/10/17 02:38:19;;;;;;;12.18;7.00;;;11.70;99.90;;;;;;2096882;28;20017;-68
2021/10/17 02:39:20;;;;;;;8.82;6.68;;;11.60;99.90;;;;;;2096808;28;20024;-68
2021/10/17 02:40:21;;;;;;;9.52;6.53;;;11.60;99.90;;;;;;2097155;28;20048;-68
2021/10/17 02:41:22;;;;;;;9.13;6.65;;;11.60;99.90;;;;;;2099073;28;20052;-68
2021/10/17 02:42:23;;;;;;;10.43;6.45;;;11.60;99.90;;;;;;2093728;28;20415;-68
2021/10/17 02:43:23;;;;;;;10.02;6.53;;;11.60;99.90;;;;;;2095034;28;20373;-68
2021/10/17 02:44:24;;;;;;;12.18;6.43;;;11.70;99.90;;;;;;2104800;28;20016;-69
2021/10/17 02:45:26;;;;;;;11.43;6.18;;;11.70;99.90;;;;;;2105502;28;20052;-68
2021/10/17 02:46:27;;;;;;;13.13;6.93;;;11.60;99.90;;;;;;2105451;28;20016;-68
2021/10/17 02:47:28;;;;;;;11.27;6.55;;;11.60;99.90;;;;;;2105520;28;20135;-68
2021/10/17 02:48:28;;;;;;;11.90;7.03;;;11.60;99.90;;;;;;2104860;28;20028;-68
2021/10/17 02:49:29;;;;;;;10.93;6.57;;;11.60;99.90;;;;;;2104830;28;20097;-68
2021/10/17 02:50:30;;;;;;;10.70;6.55;;;11.50;99.90;;;;;;2096278;28;20017;-68
2021/10/17 02:51:30;;;;;;;8.40;5.93;;;11.50;99.90;;;;;;2101708;28;20505;-68
2021/10/17 02:52:31;;;;;;;10.02;6.15;;;11.60;99.90;;;;;;2098592;28;20067;-68
2021/10/17 02:53:32;;;;;;;9.50;6.18;;;11.50;99.90;;;;;;2101737;28;20035;-68
2021/10/17 02:54:33;;;;;;;9.73;6.00;;;11.50;99.90;;;;;;2105418;28;20519;-68
2021/10/17 02:55:34;;;;;;;12.35;6.68;;;11.50;99.90;;;;;;2100954;28;20020;-68
2021/10/17 02:56:34;;;;;;;7.88;6.35;;;11.50;99.90;;;;;;2104541;28;20039;-68
2021/10/17 02:57:35;;;;;;;9.38;6.47;;;11.50;99.90;;;;;;2105217;28;20035;-68
2021/10/17 02:58:36;;;;;;;9.48;5.97;;;11.60;99.90;;;;;;2104997;28;20032;-68
2021/10/17 02:59:36;;;;;;;10.27;6.30;;;11.50;99.90;;;;;;2105499;28;20055;-68
2021/10/17 03:00:37;;;;;;;10.13;6.45;;;11.50;99.90;;;;;;2096646;28;20075;-68
2021/10/17 03:01:38;;;;;;;8.27;5.90;;;11.50;99.90;;;;;;2104239;28;20568;-68
2021/10/17 03:02:39;;;;;;;10.60;6.40;;;11.50;99.90;;;;;;2105136;28;20012;-68
2021/10/17 03:03:39;;;;;;;9.73;6.00;;;11.60;99.90;;;;;;2105388;28;20514;-68
2021/10/17 03:04:40;;;;;;;12.13;6.10;;;11.60;99.90;;;;;;2105473;28;20058;-68
2021/10/17 03:05:41;;;;;;;9.48;6.63;;;11.50;99.90;;;;;;2099038;28;20020;-68
2021/10/17 03:06:41;;;;;;;11.93;6.13;;;11.50;99.90;;;;;;2096488;28;20062;-68
2021/10/17 03:07:42;;;;;;;9.10;6.32;;;11.60;99.90;;;;;;2097019;28;20052;-68
2021/10/17 03:08:43;;;;;;;8.65;5.88;;;11.50;99.90;;;;;;2096735;28;20027;-68
2021/10/17 03:09:44;;;;;;;8.00;5.38;;;11.50;99.90;;;;;;2097062;28;20021;-68
2021/10/17 03:10:44;;;;;;;7.90;5.70;;;11.50;99.90;;;;;;2096732;28;20013;-68
2021/10/17 03:11:45;;;;;;;9.95;6.28;;;11.50;99.90;;;;;;2097767;28;20028;-68
2021/10/17 03:12:45;;;;;;;7.43;5.80;;;11.50;99.90;;;;;;2104518;28;20077;-68
2021/10/17 03:13:47;;;;;;;8.55;5.78;;;11.50;99.90;;;;;;2104174;28;20027;-68
2021/10/17 03:14:48;;;;;;;8.27;5.53;;;11.50;99.90;;;;;;2102814;28;20016;-68
2021/10/17 03:15:48;;;;;;;7.90;5.38;;;11.50;99.90;;;;;;2102198;28;20473;-68
2021/10/17 03:16:49;;;;;;;7.82;5.97;;;11.50;99.90;;;;;;2096020;28;20618;-68
2021/10/17 03:17:50;;;;;;;7.95;5.60;;;11.50;99.90;;;;;;2104725;28;20683;-68
2021/10/17 03:18:51;;;;;;;9.38;5.88;;;11.50;99.90;;;;;;2105036;28;20469;-68
2021/10/17 03:19:51;;;;;;;8.32;6.15;;;11.50;99.90;;;;;;2105378;28;20028;-68
2021/10/17 03:20:52;;;;;;;8.73;5.78;;;11.50;99.90;;;;;;2101864;28;20085;-68
2021/10/17 03:21:53;;;;;;;11.73;6.05;;;11.50;99.90;;;;;;2098180;28;20082;-68
2021/10/17 03:22:53;;;;;;;11.05;5.30;;;11.50;99.90;;;;;;2097568;28;20078;-68
2021/10/17 03:23:54;;;;;;;8.20;5.30;;;11.50;99.90;;;;;;2104633;28;20575;-68
2021/10/17 03:24:55;;;;;;;11.25;5.40;;;11.50;99.90;;;;;;2105243;28;20392;-68
2021/10/17 03:25:55;;;;;;;8.48;5.50;;;11.50;99.90;;;;;;2102542;28;20027;-68
2021/10/17 03:26:56;;;;;;;8.35;5.45;;;11.60;99.90;;;;;;2096984;28;20044;-68
2021/10/17 03:27:57;;;;;;;8.15;5.97;;;11.50;99.90;;;;;;2100896;28;20039;-68
2021/10/17 03:28:57;;;;;;;8.70;5.57;;;11.50;99.90;;;;;;2105394;28;20035;-68
2021/10/17 03:29:58;;;;;;;12.43;5.40;;;11.50;99.90;;;;;;2095661;28;20020;-68
2021/10/17 03:30:59;;;;;;;8.48;5.30;;;11.50;99.90;;;;;;2097561;28;20058;-68
2021/10/17 03:31:59;;;;;;;8.10;5.70;;;11.50;99.90;;;;;;2105008;28;20020;-68
2021/10/17 03:33:00;;;;;;;8.27;5.40;;;11.50;99.90;;;;;;2104822;28;20424;-68
2021/10/17 03:34:01;;;;;;;7.53;5.43;;;11.50;99.90;;;;;;2099234;28;20028;-68
2021/10/17 03:35:03;;;;;;;8.68;5.60;;;11.50;99.90;;;;;;2102872;28;20020;-68
2021/10/17 03:36:04;;;;;;;7.90;5.45;;;11.50;99.90;;;;;;2099839;28;20449;-68
2021/10/17 03:37:05;;;;;;;9.02;5.78;;;11.50;99.90;;;;;;2105112;28;20028;-68
2021/10/17 03:38:05;;;;;;;9.02;5.50;;;11.50;99.90;;;;;;2104949;28;20021;-68
2021/10/17 03:39:06;;;;;;;10.88;6.00;;;11.40;99.90;;;;;;2105313;28;20017;-68
2021/10/17 03:40:07;;;;;;;8.63;6.07;;;11.40;99.90;;;;;;2098060;28;20031;-68
2021/10/17 03:41:08;;;;;;;9.90;5.82;;;11.50;99.90;;;;;;2096361;28;20017;-68
2021/10/17 03:42:09;;;;;;;8.90;5.38;;;11.50;99.90;;;;;;2097051;28;20040;-68
2021/10/17 03:43:09;;;;;;;9.20;5.25;;;11.50;99.90;;;;;;2100783;28;20023;-69
2021/10/17 03:44:10;;;;;;;7.60;5.50;;;11.50;99.90;;;;;;2096130;28;20557;-68
2021/10/17 03:45:11;;;;;;;8.90;5.45;;;11.50;99.90;;;;;;2102151;28;20021;-68
2021/10/17 03:46:11;;;;;;;7.90;5.13;;;11.50;99.90;;;;;;2104488;28;20020;-69
2021/10/17 03:47:12;;;;;;;12.45;5.50;;;11.50;99.90;;;;;;2096116;28;20520;-68
2021/10/17 03:48:13;;;;;;;10.05;6.10;;;11.50;99.90;;;;;;2096227;28;20529;-68
2021/10/17 03:49:13;;;;;;;13.65;5.15;;;11.50;99.90;;;;;;2104121;28;20052;-68
2021/10/17 03:50:14;;;;;;;8.93;5.65;;;11.50;99.90;;;;;;2104609;28;20526;-68
2021/10/17 03:51:16;;;;;;;8.27;5.65;;;11.40;99.90;;;;;;2098253;28;20713;-68
2021/10/17 03:52:16;;;;;;;6.50;5.47;;;11.40;99.90;;;;;;2098434;28;20633;-68
2021/10/17 03:53:17;;;;;;;8.23;5.20;;;11.40;99.90;;;;;;2101031;28;20024;-68
2021/10/17 03:54:18;;;;;;;7.15;5.38;;;11.40;99.90;;;;;;2106875;28;20024;-68
2021/10/17 03:55:18;;;;;;;8.65;5.93;;;11.40;99.90;;;;;;2106539;28;20020;-69
2021/10/17 03:56:19;;;;;;;11.73;5.85;;;11.40;99.90;;;;;;2106763;28;20020;-68
2021/10/17 03:57:20;;;;;;;9.57;5.88;;;11.40;99.90;;;;;;2103535;28;20043;-68
2021/10/17 03:58:20;;;;;;;11.23;5.82;;;11.30;99.90;;;;;;2098675;28;20115;-68
2021/10/17 03:59:21;;;;;;;10.50;5.97;;;11.30;99.90;;;;;;2105032;28;20016;-69
2021/10/17 04:00:22;;;;;;;7.68;5.68;;;11.30;99.90;;;;;;2100779;28;20030;-68
2021/10/17 04:01:23;;;;;;;7.68;5.38;;;11.30;99.90;;;;;;2098050;28;20133;-68
2021/10/17 04:02:24;;;;;;;9.02;5.68;;;11.30;99.90;;;;;;2106291;28;20081;-68
2021/10/17 04:03:24;;;;;;;7.22;5.40;;;11.30;99.90;;;;;;2106376;28;20024;-68
2021/10/17 04:04:25;;;;;;;7.05;4.93;;;11.20;99.90;;;;;;2103462;28;20035;-69
2021/10/17 04:05:26;;;;;;;8.35;5.70;;;11.20;99.90;;;;;;2103094;28;20020;-68
2021/10/17 04:06:26;;;;;;;7.00;5.75;;;11.10;99.90;;;;;;2100484;28;20024;-68
2021/10/17 04:07:27;;;;;;;8.85;5.63;;;11.10;99.90;;;;;;2106088;28;20020;-68
2021/10/17 04:08:28;;;;;;;8.68;5.57;;;11.10;99.90;;;;;;2104441;28;20048;-68
2021/10/17 04:09:29;;;;;;;8.80;5.22;;;11.10;99.90;;;;;;2106758;28;20562;-68
2021/10/17 04:10:30;;;;;;;7.10;5.57;;;11.10;99.90;;;;;;2100394;28;20056;-68
2021/10/17 04:11:30;;;;;;;7.18;5.15;;;11.10;99.90;;;;;;2097883;28;20074;-68
2021/10/17 04:12:31;;;;;;;9.90;5.45;;;11.10;99.90;;;;;;2103524;28;20051;-67
2021/10/17 04:13:32;;;;;;;6.60;5.13;;;11.10;99.90;;;;;;2105361;28;20056;-68
2021/10/17 04:14:33;;;;;;;6.38;5.10;;;11.10;99.90;;;;;;2097421;28;20028;-68
2021/10/17 04:15:36;;;;;;;6.65;5.10;;;11.00;99.90;;;;;;2101831;28;20027;-68
2021/10/17 04:16:36;;;;;;;6.88;4.95;;;11.00;99.90;;;;;;2103292;28;20024;-68
2021/10/17 04:17:37;;;;;;;9.93;5.45;;;11.00;99.90;;;;;;2101931;28;20095;-68
2021/10/17 04:18:38;;;;;;;9.57;5.15;;;11.00;99.90;;;;;;2098028;28;20059;-69
2021/10/17 04:19:38;;;;;;;7.35;5.03;;;11.00;99.90;;;;;;2098217;28;20032;-68
2021/10/17 04:20:40;;;;;;;8.45;5.20;;;10.90;99.90;;;;;;2103426;28;20031;-69
2021/10/17 04:21:41;;;;;;;5.40;4.63;;;10.90;99.90;;;;;;2108998;28;20104;-69
2021/10/17 04:22:41;;;;;;;8.38;5.40;;;10.80;99.90;;;;;;2102938;28;20491;-69
2021/10/17 04:23:42;;;;;;;7.25;5.15;;;10.90;99.90;;;;;;2106264;28;20024;-68
2021/10/17 04:24:43;;;;;;;8.45;5.35;;;10.90;99.90;;;;;;2106261;28;20528;-69
2021/10/17 04:25:44;;;;;;;10.65;4.97;;;10.90;99.90;;;;;;2105622;28;20087;-69
2021/10/17 04:26:45;;;;;;;10.73;5.50;;;10.90;99.90;;;;;;2103301;28;20556;-69
2021/10/17 04:27:46;;;;;;;10.18;5.13;;;10.80;99.90;;;;;;2096886;28;20025;-68
2021/10/17 04:28:48;;;;;;;5.82;4.60;;;10.80;99.90;;;;;;2105605;28;20028;-69
2021/10/17 04:29:48;;;;;;;7.28;5.05;;;10.80;99.90;;;;;;2100593;28;20028;-68
2021/10/17 04:30:49;;;;;;;5.72;4.40;;;10.80;99.90;;;;;;2096977;28;20032;-68
2021/10/17 04:31:50;;;;;;;6.57;5.03;;;10.80;99.90;;;;;;2103034;28;20028;-69
2021/10/17 04:32:50;;;;;;;8.23;4.60;;;10.80;99.90;;;;;;2102337;28;20024;-69
2021/10/17 04:33:51;;;;;;;7.88;5.20;;;10.80;99.90;;;;;;2100490;28;20536;-68
2021/10/17 04:34:52;;;;;;;6.95;4.70;;;10.70;99.90;;;;;;2100706;28;20060;-69
2021/10/17 04:35:53;;;;;;;6.32;4.93;;;10.70;99.90;;;;;;2098013;28;20529;-69
2021/10/17 04:36:53;;;;;;;6.30;4.70;;;10.70;99.90;;;;;;2100963;28;20024;-68
2021/10/17 04:37:54;;;;;;;8.27;4.93;;;10.70;99.90;;;;;;2102920;28;20074;-68
2021/10/17 04:38:55;;;;;;;8.07;5.00;;;10.70;99.90;;;;;;2088822;28;20071;-68
2021/10/17 04:39:56;;;;;;;8.10;5.20;;;10.60;99.90;;;;;;2097320;28;20028;-68
2021/10/17 04:40:57;;;;;;;7.18;5.00;;;10.70;99.90;;;;;;2098329;28;20021;-68
2021/10/17 04:41:59;;;;;;;9.80;5.10;;;10.60;99.90;;;;;;2097430;28;20127;-68
2021/10/17 04:42:59;;;;;;;;;;;10.60;99.90;;;;;;2097632;28;20042;-69
2021/10/17 04:44:02;;;;;;;6.55;4.97;;;10.60;99.90;;;;;;2097596;28;20360;-68
2021/10/17 04:45:06;;;;;;;6.50;4.60;;;10.60;99.90;;;;;;2095809;28;22220;-68
2021/10/17 04:46:08;;;;;;;10.85;5.72;;;10.60;99.90;;;;;;2097452;28;20515;-68
2021/10/17 04:47:08;;;;;;;7.55;5.05;;;10.50;99.90;;;;;;2100400;28;20009;-69
2021/10/17 04:48:09;;;;;;;8.20;5.40;;;10.50;99.90;;;;;;2103342;28;20533;-69
2021/10/17 04:49:10;;;;;;;7.63;5.15;;;10.50;99.90;;;;;;2096945;28;20450;-68
2021/10/17 04:50:10;;;;;;;10.23;5.40;;;10.50;99.90;;;;;;2102622;28;20042;-68
2021/10/17 04:51:11;;;;;;;8.90;4.88;;;10.50;99.90;;;;;;2103265;28;20025;-68
2021/10/17 04:52:12;;;;;;;7.20;5.00;;;10.60;99.90;;;;;;2097796;28;20074;-68
2021/10/17 04:53:12;;;;;;;7.20;4.63;;;10.60;99.90;;;;;;2100288;28;20112;-69
2021/10/17 04:54:13;;;;;;;7.90;5.15;;;10.60;99.90;;;;;;2102100;28;20026;-68
2021/10/17 04:55:14;;;;;;;9.55;5.20;;;10.50;99.90;;;;;;2102457;28;20099;-68
2021/10/17 04:56:14;;;;;;;6.85;4.82;;;10.50;99.90;;;;;;2103956;28;20016;-68
2021/10/17 04:57:15;;;;;;;6.95;4.90;;;10.60;99.90;;;;;;2105365;28;20407;-68
2021/10/17 04:58:16;;;;;;;9.30;5.07;;;10.60;99.90;;;;;;2105491;28;20467;-68
2021/10/17 04:59:21;;;;;;;7.43;4.97;;;10.60;99.90;;;;;;2097744;28;20013;-68
2021/10/17 05:00:21;;;;;;;9.13;5.50;;;10.50;99.90;;;;;;2102885;28;20020;-68
2021/10/17 05:01:22;;;;;;;7.30;4.85;;;10.50;99.90;;;;;;2104968;28;20082;-68
2021/10/17 05:02:23;;;;;;;8.95;5.43;;;10.50;99.90;;;;;;2100380;28;20028;-68
2021/10/17 05:03:23;;;;;;;7.80;4.85;;;10.50;99.90;;;;;;2099363;28;20516;-68
2021/10/17 05:04:24;;;;;;;7.13;4.93;;;10.50;99.90;;;;;;2105344;28;20495;-68
2021/10/17 05:05:25;;;;;;;8.18;5.72;;;10.50;99.90;;;;;;2105316;28;20016;-68
2021/10/17 05:06:26;;;;;;;7.35;5.60;;;10.60;99.90;;;;;;2106059;28;20099;-68
2021/10/17 05:07:26;;;;;;;8.00;4.97;;;10.70;99.90;;;;;;2099177;28;20035;-68
2021/10/17 05:08:27;;;;;;;10.07;5.68;;;10.60;99.90;;;;;;2103794;28;20027;-68
2021/10/17 05:09:28;;;;;;;6.82;4.90;;;10.70;99.90;;;;;;2102026;28;20693;-68
2021/10/17 05:10:28;;;;;;;8.80;5.30;;;10.70;99.90;;;;;;2101662;28;20017;-68
2021/10/17 05:11:30;;;;;;;8.68;5.10;;;10.60;99.90;;;;;;2097589;28;20024;-68
2021/10/17 05:12:30;;;;;;;11.55;5.07;;;10.60;99.90;;;;;;2097247;28;20073;-68
2021/10/17 05:13:31;;;;;;;8.52;5.47;;;10.70;99.90;;;;;;2097911;28;20077;-68
2021/10/17 05:14:32;;;;;;;5.85;5.18;;;10.60;99.90;;;;;;2099738;28;20040;-68
2021/10/17 05:15:33;;;;;;;8.50;5.20;;;10.70;99.90;;;;;;2097959;28;20105;-68